createdAt,value
2018-07-11T00:02:24.389Z,92.70
2018-07-11T00:04:58.717Z,92.80
2018-07-11T00:07:27.902Z,93.00
2018-07-11T00:09:57.627Z,93.20
2018-07-11T00:12:27.342Z,93.30
2018-07-11T00:14:56.478Z,93.50
2018-07-11T00:22:27.145Z,93.60
2018-07-11T00:24:56.690Z,93.40
2018-07-11T00:27:27.418Z,93.30
2018-07-11T00:29:57.241Z,93.10
2018-07-11T00:32:26.384Z,93.20
2018-07-11T00:34:55.755Z,93.20
2018-07-11T00:40:00.090Z,93.40
2018-07-11T00:42:30.081Z,93.50
2018-07-11T00:44:59.747Z,93.50
2018-07-11T00:47:29.278Z,93.40
2018-07-11T00:49:58.708Z,93.30
2018-07-11T00:52:27.999Z,93.90
2018-07-11T00:54:57.419Z,93.50
2018-07-11T00:57:32.613Z,93.50
2018-07-11T01:00:10.179Z,93.70
2018-07-11T01:02:55.384Z,93.80
2018-07-11T01:05:27.372Z,93.90
2018-07-11T01:08:05.185Z,94.10
2018-07-11T01:10:38.207Z,94.20
2018-07-11T01:13:08.248Z,94.20
2018-07-11T01:15:37.769Z,94.30
2018-07-11T01:18:12.179Z,94.40
2018-07-11T01:20:41.691Z,94.60
2018-07-11T01:23:10.870Z,94.70
2018-07-11T01:25:40.710Z,94.80
2018-07-11T01:28:11.093Z,94.90
2018-07-11T01:30:40.763Z,95.00
2018-07-11T01:33:09.727Z,95.00
2018-07-11T01:35:38.748Z,95.20
2018-07-11T01:38:09.131Z,95.30
2018-07-11T01:40:38.526Z,95.40
2018-07-11T01:43:09.086Z,95.40
2018-07-11T01:45:40.346Z,95.50
2018-07-11T01:48:09.884Z,95.60
2018-07-11T01:50:38.895Z,95.50
2018-07-11T01:53:08.671Z,95.60
2018-07-11T01:55:37.882Z,95.60
2018-07-11T01:58:07.711Z,95.60
2018-07-11T02:03:05.843Z,95.60
2018-07-11T02:05:35.566Z,95.80
2018-07-11T02:08:04.924Z,95.90
2018-07-11T02:10:38.114Z,96.10
2018-07-11T02:15:37.440Z,96.20
2018-07-11T02:18:08.220Z,96.30
2018-07-11T02:20:37.735Z,96.40
2018-07-11T02:23:07.355Z,96.50
2018-07-11T02:25:37.360Z,96.50
2018-07-11T02:28:08.495Z,96.60
2018-07-11T02:30:37.925Z,96.80
2018-07-11T02:33:07.357Z,96.80
2018-07-11T02:35:37.414Z,97.00
2018-07-11T02:38:10.580Z,97.50
2018-07-11T02:40:39.778Z,97.80
2018-07-11T02:43:08.737Z,98.10
2018-07-11T02:45:37.759Z,98.30
2018-07-11T02:48:06.769Z,98.60
2018-07-11T02:50:36.288Z,98.90
2018-07-11T02:53:05.241Z,99.10
2018-07-11T02:55:34.288Z,99.50
2018-07-11T02:58:03.390Z,99.90
2018-07-11T03:00:32.738Z,99.90
2018-07-11T03:03:01.991Z,99.90
2018-07-11T03:05:31.284Z,99.90
2018-07-11T03:08:00.730Z,99.90
2018-07-11T03:10:30.312Z,99.90
2018-07-11T03:13:00.240Z,99.90
2018-07-11T03:17:57.916Z,99.90
2018-07-11T03:20:27.364Z,99.90
2018-07-11T03:22:56.440Z,99.90
2018-07-11T03:25:25.434Z,99.90
2018-07-11T03:27:54.512Z,99.90
2018-07-11T03:32:52.384Z,99.90
2018-07-11T03:35:21.621Z,99.90
2018-07-11T03:37:50.650Z,99.90
2018-07-11T03:40:19.721Z,99.90
2018-07-11T03:42:48.785Z,99.90
2018-07-11T03:47:47.155Z,99.90
2018-07-11T03:50:16.428Z,99.90
2018-07-11T03:52:45.522Z,99.90
2018-07-11T03:55:14.507Z,99.90
2018-07-11T03:57:44.948Z,99.90
2018-07-11T04:00:14.304Z,99.90
2018-07-11T04:02:43.909Z,99.90
2018-07-11T04:05:13.111Z,99.90
2018-07-11T04:10:10.963Z,99.90
2018-07-11T04:12:39.994Z,99.90
2018-07-11T04:20:06.672Z,99.90
2018-07-11T04:22:44.971Z,99.90
2018-07-11T04:25:14.039Z,99.90
2018-07-11T04:27:43.114Z,99.90
2018-07-11T04:30:12.785Z,99.90
2018-07-11T04:32:41.895Z,99.90
2018-07-11T04:35:11.322Z,99.90
2018-07-11T04:37:40.608Z,99.90
2018-07-11T04:40:09.746Z,99.90
2018-07-11T04:42:39.397Z,99.90
2018-07-11T04:45:08.612Z,99.90
2018-07-11T04:47:37.674Z,99.90
2018-07-11T04:50:07.125Z,99.90
2018-07-11T04:52:38.353Z,99.90
2018-07-11T04:55:07.573Z,99.90
2018-07-11T04:57:36.643Z,99.90
2018-07-11T05:00:06.416Z,99.90
2018-07-11T05:02:35.407Z,99.90
2018-07-11T05:05:12.446Z,99.90
2018-07-11T05:07:41.478Z,99.90
2018-07-11T05:15:08.469Z,99.90
2018-07-11T05:20:06.184Z,99.90
2018-07-11T05:22:35.486Z,99.90
2018-07-11T05:25:04.542Z,99.90
2018-07-11T05:27:33.497Z,99.90
2018-07-11T05:30:02.666Z,99.90
2018-07-11T05:32:31.851Z,99.90
2018-07-11T05:35:01.223Z,99.90
2018-07-11T05:37:30.139Z,99.90
2018-07-11T05:39:59.560Z,99.90
2018-07-11T05:42:29.054Z,99.90
2018-07-11T05:44:58.031Z,99.90
2018-07-11T05:47:28.604Z,99.90
2018-07-11T05:50:02.179Z,99.90
2018-07-11T05:52:36.116Z,99.90
2018-07-11T05:55:10.105Z,99.90
2018-07-11T05:57:40.120Z,99.90
2018-07-11T06:00:09.664Z,99.90
2018-07-11T06:05:08.246Z,99.90
2018-07-11T06:07:37.309Z,99.90
2018-07-11T06:10:06.343Z,99.90
2018-07-11T06:12:37.613Z,99.90
2018-07-11T06:15:07.574Z,99.90
2018-07-11T06:17:41.801Z,99.90
2018-07-11T06:20:20.474Z,99.90
2018-07-11T06:22:49.854Z,99.90
2018-07-11T06:25:18.938Z,99.90
2018-07-11T06:27:48.014Z,99.90
2018-07-11T06:30:16.945Z,99.90
2018-07-11T06:32:47.493Z,99.90
2018-07-11T06:35:17.165Z,99.60
2018-07-11T06:37:46.408Z,98.50
2018-07-11T06:42:45.244Z,95.80
2018-07-11T06:45:15.273Z,95.50
2018-07-11T06:47:45.022Z,92.30
2018-07-11T06:50:14.231Z,91.30
2018-07-11T06:55:14.291Z,93.20
2018-07-11T06:57:44.471Z,93.80
2018-07-11T07:00:23.699Z,93.00
2018-07-11T07:02:58.607Z,92.30
2018-07-11T07:05:28.089Z,90.60
2018-07-11T07:07:57.095Z,90.60
2018-07-11T07:10:26.212Z,90.60
2018-07-11T07:12:56.330Z,92.00
2018-07-11T07:15:25.582Z,92.80
2018-07-11T07:18:08.821Z,92.10
2018-07-11T07:20:38.307Z,90.50
2018-07-11T07:23:17.173Z,88.00
2018-07-11T07:25:47.006Z,86.70
2018-07-11T07:28:16.656Z,86.20
2018-07-11T07:30:46.736Z,85.90
2018-07-11T07:33:16.019Z,87.00
2018-07-11T07:35:45.660Z,88.00
2018-07-11T07:38:14.893Z,88.80
2018-07-11T07:40:44.583Z,88.00
2018-07-11T07:43:13.762Z,84.60
2018-07-11T07:45:44.247Z,79.50
2018-07-11T07:48:14.658Z,76.00
2018-07-11T07:50:43.836Z,68.10
2018-07-11T07:55:42.387Z,60.70
2018-07-11T07:58:11.671Z,58.70
2018-07-11T08:00:40.869Z,57.10
2018-07-11T08:03:10.191Z,63.70
2018-07-11T08:05:40.844Z,72.50
2018-07-11T08:10:40.443Z,82.10
2018-07-11T08:13:10.085Z,83.00
2018-07-11T08:18:09.190Z,81.30
2018-07-11T08:20:38.438Z,83.50
2018-07-11T08:23:25.501Z,82.90
2018-07-11T08:26:06.885Z,77.30
2018-07-11T08:31:29.869Z,66.40
2018-07-11T08:35:10.585Z,62.30
2018-07-11T08:37:58.212Z,56.80
2018-07-11T08:40:38.324Z,59.70
2018-07-11T08:44:33.981Z,57.20
2018-07-11T08:47:16.188Z,56.20
2018-07-11T08:54:41.428Z,55.00
2018-07-11T08:58:23.945Z,51.20
2018-07-11T09:01:38.396Z,47.30
2018-07-11T09:04:18.783Z,52.20
2018-07-11T09:09:05.175Z,53.60
2018-07-11T09:11:45.170Z,55.30
2018-07-11T09:22:13.124Z,54.10
2018-07-11T09:24:44.355Z,54.60
2018-07-11T09:27:14.052Z,59.00
2018-07-11T09:29:44.026Z,58.20
2018-07-11T09:32:19.233Z,58.20
2018-07-11T09:37:22.733Z,56.70
2018-07-11T09:40:08.886Z,56.30
2018-07-11T09:42:42.172Z,57.30
2018-07-11T09:45:14.082Z,61.20
2018-07-11T09:47:53.953Z,61.00
2018-07-11T09:50:30.323Z,61.40
2018-07-11T09:53:01.768Z,58.50
2018-07-11T09:55:33.929Z,54.60
2018-07-11T09:58:03.441Z,52.00
2018-07-11T10:00:40.871Z,49.80
2018-07-11T10:03:13.477Z,46.40
2018-07-11T10:05:44.506Z,43.40
2018-07-11T10:08:24.845Z,44.40
2018-07-11T10:10:59.585Z,47.30
2018-07-11T10:13:30.937Z,48.80
2018-07-11T10:16:00.397Z,50.50
2018-07-11T10:18:38.350Z,53.50
2018-07-11T10:21:09.085Z,54.70
2018-07-11T10:23:38.418Z,53.60
2018-07-11T10:26:10.201Z,51.50
2018-07-11T10:28:40.429Z,48.90
2018-07-11T10:31:14.572Z,46.80
2018-07-11T10:33:44.436Z,44.10
2018-07-11T10:36:15.861Z,39.90
2018-07-11T10:38:53.644Z,39.10
2018-07-11T10:41:23.106Z,39.60
2018-07-11T10:43:52.609Z,40.60
2018-07-11T10:46:21.937Z,42.30
2018-07-11T10:48:51.974Z,44.80
2018-07-11T10:51:21.955Z,46.30
2018-07-11T10:53:53.873Z,44.90
2018-07-11T10:56:26.877Z,44.90
2018-07-11T10:58:56.446Z,45.00
2018-07-11T11:01:25.858Z,45.40
2018-07-11T11:03:55.347Z,46.70
2018-07-11T11:06:24.597Z,47.10
2018-07-11T11:08:54.188Z,49.00
2018-07-11T11:11:29.901Z,50.80
2018-07-11T11:14:05.188Z,51.80
2018-07-11T11:16:37.069Z,49.40
2018-07-11T11:19:07.639Z,44.40
2018-07-11T11:21:36.979Z,40.90
2018-07-11T11:24:07.057Z,36.80
2018-07-11T11:26:39.198Z,35.40
2018-07-11T11:29:09.225Z,34.50
2018-07-11T11:31:39.035Z,33.90
2018-07-11T11:34:20.708Z,35.40
2018-07-11T11:37:02.426Z,37.30
2018-07-11T11:39:32.653Z,39.10
2018-07-11T11:42:04.415Z,39.50
2018-07-11T11:44:34.700Z,40.60
2018-07-11T11:47:06.869Z,39.90
2018-07-11T11:49:42.534Z,37.20
2018-07-11T11:52:12.602Z,35.00
2018-07-11T11:54:42.220Z,35.10
2018-07-11T11:57:22.281Z,37.60
2018-07-11T12:00:03.373Z,38.90
2018-07-11T12:02:39.802Z,38.80
2018-07-11T12:05:13.252Z,35.30
2018-07-11T12:07:43.732Z,33.80
2018-07-11T12:10:16.693Z,36.20
2018-07-11T12:12:46.737Z,37.90
2018-07-11T12:15:16.872Z,38.50
2018-07-11T12:17:54.279Z,39.40
2018-07-11T12:20:24.218Z,38.80
2018-07-11T12:22:53.906Z,38.70
2018-07-11T12:25:26.680Z,37.30
2018-07-11T12:28:03.946Z,36.00
2018-07-11T12:30:37.930Z,33.80
2018-07-11T12:33:21.083Z,31.90
2018-07-11T12:35:56.104Z,30.40
2018-07-11T12:38:28.903Z,30.20
2018-07-11T12:40:58.095Z,30.20
2018-07-11T12:43:36.236Z,31.30
2018-07-11T12:46:07.390Z,32.60
2018-07-11T12:48:42.322Z,32.30
2018-07-11T12:51:27.101Z,32.40
2018-07-11T12:53:57.218Z,33.50
2018-07-11T12:56:28.668Z,32.10
2018-07-11T12:58:59.073Z,31.80
2018-07-11T13:01:30.806Z,30.90
2018-07-11T13:04:02.786Z,31.40
2018-07-11T13:06:32.571Z,32.00
2018-07-11T13:09:02.628Z,31.80
2018-07-11T13:11:32.846Z,33.10
2018-07-11T13:14:03.366Z,35.00
2018-07-11T13:16:32.893Z,35.70
2018-07-11T13:19:02.720Z,37.10
2018-07-11T13:21:32.074Z,37.80
2018-07-11T13:24:03.486Z,38.70
2018-07-11T13:26:33.299Z,39.50
2018-07-11T13:29:04.965Z,40.00
2018-07-11T13:31:34.574Z,40.60
2018-07-11T13:34:05.277Z,40.70
2018-07-11T13:36:41.757Z,41.60
2018-07-11T13:39:23.361Z,41.90
2018-07-11T13:41:54.576Z,42.90
2018-07-11T13:44:27.198Z,43.30
2018-07-11T13:46:57.010Z,43.80
2018-07-11T13:49:26.133Z,44.00
2018-07-11T13:51:55.608Z,44.30
2018-07-11T13:54:25.646Z,45.50
2018-07-11T13:56:56.401Z,45.90
2018-07-11T13:59:26.748Z,46.60
2018-07-11T14:01:56.193Z,46.80
2018-07-11T14:04:26.719Z,47.30
2018-07-11T14:07:08.312Z,47.90
2018-07-11T14:09:42.612Z,47.60
2018-07-11T14:12:12.560Z,47.80
2018-07-11T14:14:45.471Z,48.20
2018-07-11T14:17:16.240Z,48.60
2018-07-11T14:19:51.795Z,49.00
2018-07-11T14:22:30.047Z,50.00
2018-07-11T14:25:06.981Z,49.80
2018-07-11T14:27:50.504Z,50.30
2018-07-11T14:30:24.333Z,50.80
2018-07-11T14:33:08.330Z,51.40
2018-07-11T14:35:38.160Z,51.70
2018-07-11T14:38:07.614Z,51.80
2018-07-11T14:40:37.197Z,52.00
2018-07-11T14:43:06.661Z,51.90
2018-07-11T14:45:36.359Z,52.10
2018-07-11T14:48:10.584Z,52.00
2018-07-11T14:50:40.595Z,52.30
2018-07-11T14:53:13.131Z,53.30
2018-07-11T14:55:42.864Z,54.00
2018-07-11T14:58:13.119Z,54.10
2018-07-11T15:00:42.369Z,54.60
2018-07-11T15:03:11.661Z,55.10
2018-07-11T15:05:50.703Z,55.30
2018-07-11T15:08:36.213Z,55.40
2018-07-11T15:11:06.983Z,55.40
2018-07-11T15:13:49.669Z,55.80
2018-07-11T15:16:29.949Z,56.10
2018-07-11T15:19:00.506Z,58.90
2018-07-11T15:21:30.487Z,75.70
2018-07-11T15:24:00.293Z,86.60
2018-07-11T15:26:29.576Z,91.80
2018-07-11T15:28:59.638Z,94.70
2018-07-11T15:31:30.005Z,96.00
2018-07-11T15:34:00.731Z,98.10
2018-07-11T15:36:32.006Z,98.30
2018-07-11T15:39:01.831Z,98.30
2018-07-11T15:41:42.267Z,97.80
2018-07-11T15:44:18.240Z,96.90
2018-07-11T15:46:59.953Z,97.00
2018-07-11T15:49:39.261Z,96.30
2018-07-11T15:52:10.203Z,96.10
2018-07-11T15:54:42.273Z,95.80
2018-07-11T15:57:13.870Z,95.60
2018-07-11T15:59:53.239Z,95.50
2018-07-11T16:02:23.781Z,95.10
2018-07-11T16:04:53.847Z,94.90
2018-07-11T16:07:26.396Z,94.40
2018-07-11T16:09:58.114Z,94.10
2018-07-11T16:12:27.417Z,94.20
2018-07-11T16:15:00.042Z,94.50
2018-07-11T16:17:31.375Z,94.00
2018-07-11T16:20:01.918Z,93.50
2018-07-11T16:22:33.029Z,93.60
2018-07-11T16:25:04.134Z,94.00
2018-07-11T16:27:34.774Z,94.60
2018-07-11T16:30:05.196Z,95.00
2018-07-11T16:32:34.711Z,95.20
2018-07-11T16:35:04.094Z,95.60
2018-07-11T16:37:36.636Z,95.60
2018-07-11T16:40:09.417Z,96.30
2018-07-11T16:42:54.258Z,96.00
2018-07-11T16:47:54.523Z,95.20
2018-07-11T16:50:29.118Z,95.10
2018-07-11T16:52:59.812Z,94.90
2018-07-11T16:55:33.152Z,94.90
2018-07-11T16:58:03.284Z,94.80
2018-07-11T17:00:36.050Z,94.70
2018-07-11T17:03:12.180Z,94.60
2018-07-11T17:05:54.271Z,94.50
2018-07-11T17:08:35.726Z,94.50
2018-07-11T17:11:26.629Z,94.30
2018-07-11T17:14:19.600Z,94.50
2018-07-11T17:16:54.458Z,94.40
2018-07-11T17:19:31.166Z,94.20
2018-07-11T17:22:01.810Z,93.90
2018-07-11T17:24:32.181Z,94.00
2018-07-11T17:29:31.388Z,94.30
2018-07-11T17:34:52.437Z,94.40
2018-07-11T17:37:27.698Z,93.90
2018-07-11T17:40:14.676Z,93.90
2018-07-11T17:45:48.554Z,93.60
2018-07-11T17:48:29.109Z,95.30
2018-07-11T17:51:03.043Z,96.50
2018-07-11T17:53:39.715Z,97.00
2018-07-11T17:56:19.825Z,97.80
2018-07-11T17:59:04.727Z,99.90
2018-07-11T18:01:46.873Z,99.90
2018-07-11T18:04:31.764Z,99.90
2018-07-11T18:07:12.733Z,99.90
2018-07-11T18:10:07.124Z,99.90
2018-07-11T18:16:03.266Z,99.90
2018-07-11T18:18:51.301Z,99.90
2018-07-11T18:24:08.068Z,99.90
2018-07-11T18:28:13.424Z,99.90
2018-07-11T18:31:02.567Z,99.90
2018-07-11T18:40:44.625Z,99.90
2018-07-11T18:43:42.494Z,99.90
2018-07-11T18:46:19.205Z,99.90
2018-07-11T18:51:21.701Z,99.90
2018-07-11T18:54:16.039Z,99.90
2018-07-11T18:57:28.869Z,99.90
2018-07-11T19:00:13.578Z,99.90
2018-07-11T19:05:08.433Z,99.90
2018-07-11T19:08:04.864Z,99.90
2018-07-11T19:10:55.837Z,99.90
2018-07-11T19:13:40.253Z,99.90
2018-07-11T19:16:30.674Z,99.90
2018-07-11T19:19:34.370Z,99.90
2018-07-11T19:24:15.145Z,99.90
2018-07-11T19:27:04.164Z,99.90
2018-07-11T19:29:51.502Z,99.90
2018-07-11T19:38:44.258Z,99.90
2018-07-11T19:41:47.101Z,99.90
2018-07-11T19:44:35.886Z,99.90
2018-07-11T19:47:19.652Z,99.90
2018-07-11T19:53:05.570Z,99.90
2018-07-11T19:58:27.954Z,99.90
2018-07-11T20:01:02.835Z,99.90
2018-07-11T20:03:34.210Z,99.90
2018-07-11T20:06:18.116Z,99.90
2018-07-11T20:08:49.694Z,99.90
2018-07-11T20:11:22.104Z,99.90
2018-07-11T20:13:54.572Z,99.90
2018-07-11T20:16:30.271Z,99.90
2018-07-11T20:19:04.499Z,99.90
2018-07-11T20:21:36.625Z,99.90
2018-07-11T20:24:11.100Z,99.90
2018-07-11T20:26:45.830Z,99.90
2018-07-11T20:29:17.630Z,99.90
2018-07-11T20:31:49.495Z,99.90
2018-07-11T20:34:22.504Z,99.90
2018-07-11T20:36:52.608Z,99.90
2018-07-11T20:39:58.576Z,99.90
2018-07-11T20:42:48.996Z,99.90
2018-07-11T20:45:24.041Z,99.90
2018-07-11T20:47:56.158Z,99.90
2018-07-11T20:50:48.090Z,99.90
2018-07-11T20:53:49.098Z,99.90
2018-07-11T20:56:21.258Z,99.90
2018-07-11T20:59:02.845Z,99.90
2018-07-11T21:01:44.398Z,99.90
2018-07-11T21:04:31.060Z,99.90
2018-07-11T21:09:10.819Z,99.90
2018-07-11T21:12:13.422Z,99.90
2018-07-11T21:15:22.220Z,99.90
2018-07-11T21:18:11.231Z,99.90
2018-07-11T21:26:11.766Z,99.90
2018-07-11T21:28:42.892Z,99.90
2018-07-11T21:31:15.289Z,99.90
2018-07-11T21:33:51.043Z,99.90
2018-07-11T21:36:25.359Z,99.90
2018-07-11T21:39:00.049Z,99.90
2018-07-11T21:41:34.513Z,99.90
2018-07-11T21:44:09.844Z,99.90
2018-07-11T21:46:51.186Z,99.90
2018-07-11T21:49:47.885Z,99.90
2018-07-11T21:52:29.792Z,99.90
2018-07-11T21:55:15.544Z,99.90
2018-07-11T21:58:06.123Z,99.90
2018-07-11T22:00:38.693Z,99.90
2018-07-11T22:03:22.744Z,99.90
2018-07-11T22:05:52.316Z,99.90
2018-07-11T22:08:22.362Z,99.90
2018-07-11T22:10:53.819Z,99.90
2018-07-11T22:13:25.118Z,99.90
2018-07-11T22:16:00.237Z,99.90
2018-07-11T22:19:00.633Z,99.90
2018-07-11T22:24:32.267Z,99.90
2018-07-11T22:27:01.792Z,99.90
2018-07-11T22:29:31.396Z,99.90
2018-07-11T22:32:00.354Z,99.90
2018-07-11T22:34:28.734Z,99.90
2018-07-11T22:37:14.384Z,99.90
2018-07-11T22:39:42.220Z,99.90
2018-07-11T22:42:10.562Z,99.90
2018-07-11T22:44:39.207Z,99.90
2018-07-11T22:47:10.297Z,99.90
2018-07-11T22:49:42.697Z,99.90
2018-07-11T22:54:40.269Z,99.90
2018-07-11T23:02:19.235Z,99.90
2018-07-11T23:04:52.258Z,99.90
2018-07-11T23:07:24.330Z,99.90
2018-07-11T23:09:56.094Z,99.90
2018-07-11T23:12:27.459Z,99.90
2018-07-11T23:15:00.915Z,99.90
2018-07-11T23:19:58.137Z,99.90
2018-07-11T23:22:26.798Z,99.90
2018-07-11T23:24:55.731Z,99.90
2018-07-11T23:27:26.817Z,99.90
2018-07-11T23:32:25.574Z,99.90
2018-07-11T23:34:54.629Z,99.90
2018-07-11T23:37:23.396Z,99.90
2018-07-11T23:39:55.574Z,99.90
2018-07-11T23:42:24.173Z,99.90
2018-07-11T23:44:51.892Z,99.90
2018-07-11T23:47:22.155Z,99.90
2018-07-11T23:49:53.242Z,99.90
2018-07-11T23:52:25.349Z,99.90
2018-07-11T23:54:59.135Z,99.90
2018-07-11T23:57:28.788Z,99.90
